createdAt,value
2019-02-26T00:26:56.147Z,23.60
2019-02-26T00:32:33.913Z,24.03
2019-02-26T00:38:03.050Z,14.83
2019-02-26T00:41:09.524Z,18.83
2019-02-26T00:43:43.178Z,18.10
2019-02-26T00:49:33.990Z,16.63
2019-02-26T00:52:08.545Z,16.60
2019-02-26T00:55:03.182Z,17.73
2019-02-26T00:57:36.476Z,18.63
2019-02-26T01:00:19.586Z,25.57
2019-02-26T01:06:10.667Z,22.13
2019-02-26T01:08:43.097Z,23.47
2019-02-26T01:11:21.475Z,23.33
2019-02-26T01:13:52.837Z,20.23
2019-02-26T01:16:31.228Z,22.30
2019-02-26T01:19:02.835Z,18.17
2019-02-26T01:21:50.969Z,14.67
2019-02-26T01:24:24.179Z,20.17
2019-02-26T01:30:05.318Z,29.87
2019-02-26T01:32:35.664Z,27.17
2019-02-26T01:35:14.018Z,15.80
2019-02-26T01:37:53.642Z,20.40
2019-02-26T01:40:25.730Z,18.73
2019-02-26T01:43:03.151Z,16.97
2019-02-26T01:45:34.433Z,17.37
2019-02-26T01:51:26.210Z,14.97
2019-02-26T01:54:02.536Z,16.17
2019-02-26T01:56:36.593Z,15.40
2019-02-26T01:59:24.874Z,14.23
2019-02-26T02:01:59.425Z,14.93
2019-02-26T02:08:01.062Z,13.77
2019-02-26T02:13:32.971Z,15.93
2019-02-26T02:19:15.508Z,15.43
2019-02-26T02:21:49.399Z,20.10
2019-02-26T02:24:25.543Z,20.77
2019-02-26T02:27:00.863Z,18.67
2019-02-26T05:40:02.815Z,22.67
2019-02-26T05:43:10.267Z,20.33
2019-02-26T05:46:24.572Z,22.87
2019-02-26T05:49:21.233Z,20.57
2019-02-26T05:59:26.559Z,21.37
2019-02-26T06:02:31.661Z,20.63
2019-02-26T06:05:43.408Z,16.97
2019-02-26T06:08:50.348Z,16.60
2019-02-26T06:15:25.893Z,16.17
2019-02-26T06:18:32.566Z,18.87
2019-02-26T06:21:23.512Z,19.80
2019-02-26T06:24:33.136Z,19.33
2019-02-26T06:30:55.006Z,20.90
2019-02-26T06:34:05.700Z,21.87
2019-02-26T06:36:54.284Z,24.37
2019-02-26T06:40:03.301Z,26.10
2019-02-26T06:46:12.373Z,22.47
2019-02-26T06:49:22.353Z,25.63
2019-02-26T06:52:15.007Z,25.93
2019-02-26T06:55:24.024Z,23.40
2019-02-26T06:58:30.113Z,32.67
2019-02-26T07:01:55.548Z,24.83
2019-02-26T07:05:03.464Z,17.80
2019-02-26T07:11:26.219Z,21.03
2019-02-26T07:14:34.145Z,22.37
2019-02-26T07:17:26.953Z,23.57
2019-02-26T07:20:34.339Z,24.37
2019-02-26T07:23:23.076Z,25.77
2019-02-26T07:26:29.455Z,27.50
2019-02-26T07:29:03.461Z,22.47
2019-02-26T07:31:33.611Z,26.00
2019-02-26T07:34:03.317Z,22.30
2019-02-26T07:36:35.103Z,23.40
2019-02-26T07:39:10.414Z,24.90
2019-02-26T07:41:44.736Z,23.43
2019-02-26T07:44:18.598Z,24.03
2019-02-26T07:46:46.509Z,22.00
2019-02-26T07:49:15.293Z,23.20
2019-02-26T07:51:43.986Z,24.27
2019-02-26T07:54:13.291Z,23.70
2019-02-26T07:56:44.807Z,25.73
2019-02-26T07:59:14.974Z,27.97
2019-02-26T08:01:45.255Z,35.97
2019-02-26T08:04:16.131Z,24.40
2019-02-26T08:06:44.721Z,21.10
2019-02-26T08:09:14.662Z,28.83
2019-02-26T08:11:46.195Z,24.17
2019-02-26T08:14:18.503Z,21.33
2019-02-26T08:16:49.282Z,19.53
2019-02-26T08:19:17.570Z,21.63
2019-02-26T08:21:47.853Z,23.30
2019-02-26T08:24:17.216Z,25.23
2019-02-26T08:26:50.359Z,26.37
2019-02-26T08:29:24.531Z,26.13
2019-02-26T08:31:54.943Z,25.17
2019-02-26T08:34:24.621Z,23.73
2019-02-26T08:36:54.837Z,20.87
2019-02-26T08:39:25.202Z,25.53
2019-02-26T08:41:56.900Z,21.50
2019-02-26T08:44:25.526Z,21.50
2019-02-26T08:46:54.230Z,21.47
2019-02-26T08:49:23.430Z,22.13
2019-02-26T08:51:52.375Z,20.40
2019-02-26T08:54:23.768Z,20.40
2019-02-26T08:56:51.691Z,22.43
2019-02-26T08:59:20.338Z,21.10
2019-02-26T09:01:49.327Z,17.97
2019-02-26T09:04:21.081Z,20.57
2019-02-26T09:06:50.553Z,21.30
2019-02-26T09:09:22.783Z,25.97
2019-02-26T09:11:55.937Z,22.37
2019-02-26T09:14:26.654Z,17.73
2019-02-26T09:16:57.156Z,19.13
2019-02-26T09:19:27.818Z,27.57
2019-02-26T09:21:56.500Z,19.50
2019-02-26T09:24:26.880Z,24.37
2019-02-26T09:26:57.434Z,17.17
2019-02-26T09:29:25.933Z,17.80
2019-02-26T09:31:54.683Z,27.37
2019-02-26T09:34:25.994Z,24.63
2019-02-26T09:36:57.698Z,18.37
2019-02-26T09:39:27.530Z,22.37
2019-02-26T09:41:57.557Z,18.67
2019-02-26T09:44:28.770Z,20.77
2019-02-26T09:46:58.349Z,24.43
2019-02-26T09:49:33.145Z,21.13
2019-02-26T09:52:02.007Z,23.60
2019-02-26T09:54:31.638Z,19.30
2019-02-26T09:57:00.378Z,21.50
2019-02-26T09:59:34.014Z,26.07
2019-02-26T10:02:04.069Z,18.90
2019-02-26T10:04:32.767Z,22.70
2019-02-26T10:07:02.330Z,20.00
2019-02-26T10:09:32.992Z,17.70
2019-02-26T10:12:02.776Z,18.57
2019-02-26T10:14:33.506Z,18.27
2019-02-26T10:17:02.386Z,18.27
2019-02-26T10:19:33.222Z,20.97
2019-02-26T10:22:05.602Z,18.50
2019-02-26T10:24:32.881Z,18.60
2019-02-26T10:27:05.417Z,17.30
2019-02-26T10:29:35.017Z,16.57
2019-02-26T10:32:02.918Z,19.93
2019-02-26T10:34:31.543Z,17.80
2019-02-26T10:37:00.303Z,16.37
2019-02-26T10:39:29.008Z,19.87
2019-02-26T10:42:01.990Z,17.20
2019-02-26T10:44:31.218Z,17.77
2019-02-26T10:47:01.253Z,18.27
2019-02-26T10:49:30.411Z,14.43
2019-02-26T10:51:59.111Z,17.30
2019-02-26T10:54:31.498Z,17.47
2019-02-26T10:57:03.050Z,15.17
2019-02-26T10:59:34.928Z,16.20
2019-02-26T11:02:05.400Z,16.07
2019-02-26T11:04:41.056Z,21.43
2019-02-26T11:07:11.470Z,20.50
2019-02-26T11:09:39.013Z,22.53
2019-02-26T11:12:09.699Z,27.60
2019-02-26T11:14:39.613Z,15.67
2019-02-26T11:17:09.298Z,39.20
2019-02-26T11:19:41.931Z,23.97
2019-02-26T11:22:20.579Z,48.70
2019-02-26T11:24:50.804Z,24.80
2019-02-26T11:27:19.674Z,30.17
2019-02-26T11:29:48.610Z,20.83
2019-02-26T11:32:17.419Z,17.20
2019-02-26T11:34:46.251Z,23.63
2019-02-26T11:37:15.113Z,17.23
2019-02-26T11:39:45.406Z,15.40
2019-02-26T11:42:18.647Z,23.17
2019-02-26T11:44:47.856Z,13.40
2019-02-26T11:47:18.351Z,31.83
2019-02-26T11:49:48.072Z,14.83
2019-02-26T11:52:19.580Z,14.83
2019-02-26T11:54:47.820Z,19.57
2019-02-26T11:57:17.820Z,19.07
2019-02-26T11:59:46.769Z,15.13
2019-02-26T12:02:24.895Z,15.50
2019-02-26T12:04:46.196Z,15.57
2019-02-26T12:07:17.803Z,15.13
2019-02-26T12:09:46.609Z,14.07
2019-02-26T12:12:22.820Z,12.50
2019-02-26T12:14:52.876Z,10.83
2019-02-26T12:17:21.643Z,10.50
2019-02-26T12:19:51.471Z,12.23
2019-02-26T12:22:22.739Z,14.83
2019-02-26T12:24:55.722Z,10.17
2019-02-26T12:27:23.701Z,11.33
2019-02-26T12:29:54.587Z,11.83
2019-02-26T12:32:24.906Z,9.77
2019-02-26T12:34:53.573Z,15.13
2019-02-26T12:37:22.185Z,12.23
2019-02-26T12:39:54.339Z,11.70
2019-02-26T12:42:21.668Z,12.43
2019-02-26T12:44:50.383Z,14.20
2019-02-26T12:47:21.792Z,11.70
2019-02-26T12:49:49.156Z,14.43
2019-02-26T12:52:21.879Z,16.33
2019-02-26T12:54:50.841Z,14.03
2019-02-26T12:57:23.063Z,23.57
2019-02-26T12:59:49.712Z,15.63
2019-02-26T13:02:20.915Z,14.67
2019-02-26T13:04:53.368Z,15.00
2019-02-26T13:07:23.322Z,16.32
2019-02-26T13:10:04.061Z,14.73
2019-02-26T13:12:32.978Z,20.47
2019-02-26T13:15:05.006Z,14.50
2019-02-26T13:17:32.490Z,12.73
2019-02-26T13:20:05.520Z,12.70
2019-02-26T13:22:31.761Z,12.10
2019-02-26T13:25:03.673Z,11.63
2019-02-26T13:27:30.944Z,12.40
2019-02-26T13:29:59.581Z,13.63
2019-02-26T13:32:32.112Z,14.43
2019-02-26T13:35:00.875Z,11.67
2019-02-26T13:37:32.464Z,18.17
2019-02-26T13:39:59.707Z,12.53
2019-02-26T13:42:28.296Z,11.83
2019-02-26T13:44:57.130Z,10.50
2019-02-26T13:47:26.256Z,9.80
2019-02-26T13:49:54.870Z,13.20
2019-02-26T13:52:23.589Z,9.33
2019-02-26T13:55:01.325Z,12.33
2019-02-26T13:57:35.343Z,11.43
2019-02-26T14:00:05.016Z,12.80
2019-02-26T14:02:33.791Z,17.80
2019-02-26T14:05:02.506Z,10.33
2019-02-26T14:07:31.327Z,12.10
2019-02-26T14:10:03.258Z,14.30
2019-02-26T14:12:34.944Z,13.83
2019-02-26T14:15:03.982Z,14.40
2019-02-26T14:17:32.675Z,15.00
2019-02-26T14:20:04.689Z,15.17
2019-02-26T14:22:33.393Z,14.60
2019-02-26T14:25:02.074Z,18.57
2019-02-26T14:27:30.829Z,15.50
2019-02-26T14:29:59.384Z,14.23
2019-02-26T14:32:29.684Z,16.30
2019-02-26T14:35:01.103Z,17.93
2019-02-26T14:37:29.669Z,16.93
2019-02-26T14:39:58.300Z,16.60
2019-02-26T14:42:26.928Z,15.97
2019-02-26T14:44:55.492Z,15.97
2019-02-26T14:47:27.381Z,13.40
2019-02-26T14:49:55.864Z,17.30
2019-02-26T14:52:24.482Z,15.33
2019-02-26T14:54:52.955Z,15.37
2019-02-26T14:57:21.638Z,17.07
2019-02-26T14:59:50.329Z,18.20
2019-02-26T15:02:18.939Z,15.43
2019-02-26T15:04:47.557Z,19.87
2019-02-26T15:07:16.379Z,17.10
2019-02-26T15:09:45.064Z,15.40
2019-02-26T15:12:13.676Z,15.37
2019-02-26T15:14:42.285Z,15.60
2019-02-26T15:17:10.909Z,14.97
2019-02-26T15:19:49.406Z,19.57
2019-02-26T15:22:09.953Z,19.03
2019-02-26T15:24:38.584Z,22.60
2019-02-26T15:27:07.201Z,22.13
2019-02-26T15:29:38.816Z,24.20
2019-02-26T15:32:10.458Z,17.77
2019-02-26T15:34:39.069Z,18.13
2019-02-26T15:37:07.671Z,19.00
2019-02-26T15:39:36.301Z,19.87
2019-02-26T15:42:05.106Z,25.10
2019-02-26T15:44:33.645Z,22.97
2019-02-26T15:47:02.972Z,24.33
2019-02-26T15:49:31.588Z,22.47
2019-02-26T15:52:00.274Z,25.40
2019-02-26T15:54:28.959Z,26.77
2019-02-26T15:56:57.698Z,26.57
2019-02-26T15:59:26.371Z,29.27
2019-02-26T16:01:55.542Z,24.37
2019-02-26T16:04:24.687Z,23.23
2019-02-26T16:06:53.320Z,23.00
2019-02-26T16:09:22.081Z,26.20
2019-02-26T16:11:50.782Z,28.23
2019-02-26T16:14:19.349Z,26.23
2019-02-26T16:16:47.913Z,23.80
2019-02-26T16:19:16.514Z,26.13
2019-02-26T16:21:45.066Z,26.70
2019-02-26T16:24:13.561Z,21.30
2019-02-26T16:26:42.183Z,29.20
2019-02-26T16:29:10.819Z,23.60
2019-02-26T16:31:39.442Z,21.67
2019-02-26T16:34:08.124Z,24.57
2019-02-26T16:36:36.685Z,20.00
2019-02-26T16:39:06.466Z,25.90
2019-02-26T16:41:38.051Z,34.67
2019-02-26T16:44:05.451Z,26.53
2019-02-26T16:46:36.828Z,33.77
2019-02-26T16:49:05.536Z,27.50
2019-02-26T16:51:39.611Z,24.33
2019-02-26T16:54:08.245Z,24.80
2019-02-26T16:56:37.159Z,21.90
2019-02-26T16:59:07.726Z,26.50
2019-02-26T17:01:36.048Z,24.37
2019-02-26T17:04:05.616Z,21.83
2019-02-26T17:06:35.009Z,24.20
2019-02-26T17:09:05.281Z,26.37
2019-02-26T17:11:33.977Z,27.03
2019-02-26T17:14:02.530Z,25.43
2019-02-26T17:16:31.929Z,27.67
2019-02-26T17:19:00.575Z,25.87
2019-02-26T17:21:30.793Z,27.53
2019-02-26T17:23:59.828Z,27.00
2019-02-26T17:26:28.315Z,30.43
2019-02-26T17:28:56.996Z,33.33
2019-02-26T17:31:30.778Z,29.93
2019-02-26T17:34:00.019Z,33.03
2019-02-26T17:36:28.571Z,31.60
2019-02-26T17:38:57.258Z,32.60
2019-02-26T17:41:25.891Z,32.43
2019-02-26T17:43:58.731Z,36.03
2019-02-26T17:46:24.905Z,33.10
2019-02-26T17:48:53.527Z,33.43
2019-02-26T17:51:22.077Z,32.07
2019-02-26T17:53:50.702Z,26.60
2019-02-26T17:56:19.244Z,25.97
2019-02-26T17:58:50.883Z,39.07
2019-02-26T18:01:19.643Z,30.23
2019-02-26T18:03:48.327Z,27.10
2019-02-26T18:06:16.949Z,26.50
2019-02-26T18:08:45.572Z,29.63
2019-02-26T18:11:14.258Z,24.93
2019-02-26T18:13:42.817Z,29.80
2019-02-26T18:16:11.585Z,32.63
2019-02-26T18:18:40.206Z,27.50
2019-02-26T18:21:08.831Z,24.17
2019-02-26T18:23:38.271Z,29.70
2019-02-26T18:26:06.958Z,33.60
2019-02-26T18:28:42.336Z,27.10
2019-02-26T18:31:10.884Z,32.37
2019-02-26T18:33:40.382Z,36.90
2019-02-26T18:36:08.995Z,28.23
2019-02-26T18:38:40.587Z,30.63
2019-02-26T18:41:09.139Z,29.80
2019-02-26T18:43:37.838Z,26.53
2019-02-26T18:46:06.468Z,41.83
2019-02-26T18:48:35.499Z,36.73
2019-02-26T18:51:07.114Z,32.87
2019-02-26T18:53:38.591Z,30.47
2019-02-26T18:56:07.210Z,30.33
2019-02-26T18:58:37.057Z,33.43
2019-02-26T19:01:08.116Z,34.80
2019-02-26T19:03:36.758Z,28.23
2019-02-26T19:06:05.395Z,30.73
2019-02-26T19:08:34.682Z,28.70
2019-02-26T19:11:03.502Z,29.63
2019-02-26T19:13:33.272Z,36.40
2019-02-26T19:16:02.587Z,30.93
2019-02-26T19:18:31.158Z,26.97
2019-02-26T19:20:59.771Z,30.67
2019-02-26T19:23:31.454Z,31.37
2019-02-26T19:25:58.880Z,30.13
2019-02-26T19:28:27.423Z,35.83
2019-02-26T19:30:56.068Z,32.97
2019-02-26T19:33:24.616Z,35.00
2019-02-26T19:35:53.082Z,37.87
2019-02-26T19:38:21.731Z,33.20
2019-02-26T19:40:53.310Z,37.97
2019-02-26T19:43:23.815Z,36.07
2019-02-26T19:45:52.161Z,35.37
2019-02-26T19:48:20.774Z,32.83
2019-02-26T19:50:49.413Z,32.53
2019-02-26T19:53:17.980Z,31.83
2019-02-26T19:55:49.907Z,36.33
2019-02-26T19:58:18.664Z,36.33
2019-02-26T20:00:47.354Z,40.80
2019-02-26T20:03:16.020Z,31.33
2019-02-26T20:05:46.591Z,38.78
2019-02-26T20:08:14.882Z,36.73
2019-02-26T20:10:47.844Z,33.13
2019-02-26T20:13:13.790Z,38.73
2019-02-26T20:15:42.501Z,33.20
2019-02-26T20:18:20.107Z,31.77
2019-02-26T20:20:45.730Z,34.33
2019-02-26T20:23:11.891Z,34.73
2019-02-26T20:25:42.713Z,32.27
2019-02-26T20:28:10.919Z,36.93
2019-02-26T20:30:39.603Z,39.53
2019-02-26T20:33:08.171Z,40.57
2019-02-26T20:35:36.786Z,40.50
2019-02-26T20:38:08.320Z,36.87
2019-02-26T20:40:36.932Z,33.45
2019-02-26T20:43:05.604Z,32.03
2019-02-26T20:45:34.170Z,37.23
2019-02-26T20:48:04.160Z,35.07
2019-02-26T20:50:33.132Z,34.00
2019-02-26T20:53:05.688Z,35.07
2019-02-26T20:55:35.591Z,36.60
2019-02-26T20:58:04.264Z,36.00
2019-02-26T21:00:35.640Z,36.43
2019-02-26T21:03:08.076Z,34.03
2019-02-26T21:05:41.846Z,37.23
2019-02-26T21:08:09.935Z,38.63
2019-02-26T21:10:38.545Z,37.43
2019-02-26T21:13:07.089Z,38.67
2019-02-26T21:15:38.461Z,40.87
2019-02-26T21:18:11.397Z,43.23
2019-02-26T21:20:41.143Z,35.47
2019-02-26T21:23:10.407Z,37.03
2019-02-26T21:25:39.081Z,35.10
2019-02-26T21:28:07.710Z,36.53
2019-02-26T21:30:36.388Z,34.53
2019-02-26T21:33:05.017Z,37.70
2019-02-26T21:35:33.586Z,39.07
2019-02-26T21:38:05.699Z,37.77
2019-02-26T21:40:32.545Z,37.03
2019-02-26T21:43:02.447Z,36.87
2019-02-26T21:45:31.181Z,39.47
2019-02-26T21:48:03.307Z,39.97
2019-02-26T21:50:32.072Z,38.83
2019-02-26T21:53:00.612Z,37.43
2019-02-26T21:55:33.735Z,39.47
2019-02-26T21:57:59.494Z,39.63
2019-02-26T22:00:28.170Z,39.43
2019-02-26T22:02:56.723Z,39.10
2019-02-26T22:05:25.353Z,39.70
2019-02-26T22:07:53.923Z,39.27
2019-02-26T22:10:22.636Z,44.10
2019-02-26T22:12:51.322Z,46.90
2019-02-26T22:15:20.001Z,52.83
2019-02-26T22:17:48.675Z,52.57
2019-02-26T22:20:23.593Z,40.37
2019-02-26T22:22:49.344Z,43.47
2019-02-26T22:25:18.055Z,42.43
2019-02-26T22:27:46.675Z,40.50
2019-02-26T22:30:22.136Z,43.10
2019-02-26T22:33:08.596Z,44.03
2019-02-26T22:35:37.172Z,39.90
2019-02-26T22:38:08.480Z,42.93
2019-02-26T22:40:37.112Z,37.40
2019-02-26T22:43:05.756Z,36.80
2019-02-26T22:45:34.476Z,38.37
2019-02-26T22:48:03.111Z,39.70
2019-02-26T22:50:31.790Z,42.57
2019-02-26T22:53:03.762Z,40.77
2019-02-26T22:55:30.708Z,42.27
2019-02-26T22:58:02.543Z,38.50
2019-02-26T23:00:50.652Z,38.33
2019-02-26T23:03:19.382Z,36.83
2019-02-26T23:05:48.056Z,33.77
2019-02-26T23:08:18.004Z,41.23
2019-02-26T23:10:46.791Z,43.20
2019-02-26T23:13:16.982Z,45.90
2019-02-26T23:15:46.055Z,41.57
2019-02-26T23:18:15.467Z,38.20
2019-02-26T23:20:44.249Z,45.87
2019-02-26T23:23:12.970Z,38.83
2019-02-26T23:25:42.248Z,37.83
2019-02-26T23:28:10.959Z,33.53
2019-02-26T23:30:40.153Z,38.53
2019-02-26T23:33:08.797Z,35.90
2019-02-26T23:35:38.167Z,38.57
2019-02-26T23:38:08.490Z,40.27
2019-02-26T23:40:37.291Z,48.13
2019-02-26T23:43:05.961Z,42.23
2019-02-26T23:45:34.904Z,49.53
2019-02-26T23:48:07.831Z,39.87
2019-02-26T23:50:33.914Z,39.23
2019-02-26T23:53:02.603Z,42.17
2019-02-26T23:55:31.214Z,43.83
2019-02-26T23:58:00.353Z,37.40
